Time,TemperatureF,DewpointF,PressureIn,WindDirection,WindDirectionDegrees,WindSpeedMPH,WindSpeedGustMPH,Humidity,HourlyPrecipIn,Conditions,Clouds,dailyrainin,SoftwareType,DateUTC
2014-04-19 00:00:00,43.6,26.6,30.24,WSW,248,0.2,0.4,51,0.00,,,0.00,WUHU216HW,2014-04-19 07:00:00,
2014-04-19 00:05:00,43.2,26.3,30.24,South,180,0.0,0.4,51,0.00,,,0.00,WUHU216HW,2014-04-19 07:05:00,
2014-04-19 00:10:00,43.2,26.3,30.24,NNE,23,1.1,1.1,51,0.00,,,0.00,WUHU216HW,2014-04-19 07:10:00,
2014-04-19 00:15:00,42.8,24.5,30.24,NNE,23,2.5,2.7,48,0.00,,,0.00,WUHU216HW,2014-04-19 07:15:00,
2014-04-19 00:20:00,42.5,23.6,30.24,North,0,2.0,2.7,47,0.00,,,0.00,WUHU216HW,2014-04-19 07:20:00,
2014-04-19 00:25:00,42.1,23.8,30.24,NNE,23,1.8,2.2,48,0.00,,,0.00,WUHU216HW,2014-04-19 07:25:00,
2014-04-19 00:30:00,42.1,24.3,30.24,NNE,23,1.8,2.2,49,0.00,,,0.00,WUHU216HW,2014-04-19 07:30:00,
2014-04-19 00:35:00,42.1,24.3,30.24,NNE,23,1.6,2.2,49,0.00,,,0.00,WUHU216HW,2014-04-19 07:35:00,
2014-04-19 00:40:00,42.1,24.3,30.24,NNE,23,1.6,2.2,49,0.00,,,0.00,WUHU216HW,2014-04-19 07:40:00,
2014-04-19 00:45:00,41.9,24.1,30.24,NNE,23,2.2,2.2,49,0.00,,,0.00,WUHU216HW,2014-04-19 07:45:00,
2014-04-19 00:50:00,42.1,24.3,30.24,North,0,2.0,2.2,49,0.00,,,0.00,WUHU216HW,2014-04-19 07:50:00,
2014-04-19 00:55:00,42.1,24.3,30.24,North,0,2.0,2.5,49,0.00,,,0.00,WUHU216HW,2014-04-19 07:55:00,
2014-04-19 01:00:00,42.1,24.3,30.24,North,0,2.9,2.9,49,0.00,,,0.00,WUHU216HW,2014-04-19 08:00:00,
2014-04-19 01:05:00,41.9,24.1,30.23,NNE,23,1.8,2.9,49,0.00,,,0.00,WUHU216HW,2014-04-19 08:05:00,
2014-04-19 01:10:00,41.6,23.8,30.23,North,0,2.0,2.9,49,0.00,,,0.00,WUHU216HW,2014-04-19 08:10:00,
2014-04-19 01:15:00,41.2,23.4,30.22,NNE,23,2.7,3.4,49,0.00,,,0.00,WUHU216HW,2014-04-19 08:15:00,
2014-04-19 01:20:00,41.0,23.2,30.22,NNE,23,2.2,3.4,49,0.00,,,0.00,WUHU216HW,2014-04-19 08:20:00,
2014-04-19 01:25:00,40.9,22.6,30.23,NNE,23,2.5,3.1,48,0.00,,,0.00,WUHU216HW,2014-04-19 08:25:00,
2014-04-19 01:30:00,40.7,22.4,30.23,NNE,23,1.8,3.1,48,0.00,,,0.00,WUHU216HW,2014-04-19 08:30:00,
2014-04-19 01:35:00,40.7,22.4,30.22,NE,45,1.6,2.7,48,0.00,,,0.00,WUHU216HW,2014-04-19 08:35:00,
2014-04-19 01:40:00,40.7,22.4,30.22,NNE,23,0.0,2.0,48,0.00,,,0.00,WUHU216HW,2014-04-19 08:40:00,
2014-04-19 01:45:00,40.7,22.4,30.22,West,270,0.9,1.8,48,0.00,,,0.00,WUHU216HW,2014-04-19 08:45:00,
2014-04-19 01:50:00,40.3,22.1,30.22,WSW,248,1.8,2.2,48,0.00,,,0.00,WUHU216HW,2014-04-19 08:50:00,
2014-04-19 01:55:00,40.0,21.3,30.22,WSW,248,0.9,2.5,47,0.00,,,0.00,WUHU216HW,2014-04-19 08:55:00,
2014-04-19 02:00:00,39.8,20.0,30.23,WNW,293,0.9,2.5,45,0.00,,,0.00,WUHU216HW,2014-04-19 09:00:00,
2014-04-19 02:05:00,39.6,19.4,30.23,SSW,203,0.0,2.2,44,0.00,,,0.00,WUHU216HW,2014-04-19 09:05:00,
2014-04-19 02:10:00,39.6,17.3,30.22,SSE,158,0.7,1.1,40,0.00,,,0.00,WUHU216HW,2014-04-19 09:10:00,
2014-04-19 02:15:00,39.4,18.1,30.22,SSW,203,0.0,0.7,42,0.00,,,0.00,WUHU216HW,2014-04-19 09:15:00,
2014-04-19 02:20:00,39.4,18.1,30.22,South,180,0.0,0.7,42,0.00,,,0.00,WUHU216HW,2014-04-19 09:20:00,
2014-04-19 02:25:00,39.4,18.1,30.22,SE,135,0.0,0.0,42,0.00,,,0.00,WUHU216HW,2014-04-19 09:25:00,
2014-04-19 02:30:00,39.2,16.3,30.22,NNE,23,1.1,1.1,39,0.00,,,0.00,WUHU216HW,2014-04-19 09:30:00,
2014-04-19 02:35:00,39.2,15.7,30.22,West,270,0.0,1.6,38,0.00,,,0.00,WUHU216HW,2014-04-19 09:35:00,
2014-04-19 02:40:00,39.2,16.3,30.22,NE,45,0.0,1.6,39,0.00,,,0.00,WUHU216HW,2014-04-19 09:40:00,
2014-04-19 02:45:00,39.2,16.3,30.22,NNE,23,0.4,0.7,39,0.00,,,0.00,WUHU216HW,2014-04-19 09:45:00,
2014-04-19 02:50:00,39.2,16.9,30.22,NNE,23,0.4,1.1,40,0.00,,,0.00,WUHU216HW,2014-04-19 09:50:00,
2014-04-19 02:55:00,39.1,16.7,30.21,NNE,23,1.8,1.8,40,0.00,,,0.00,WUHU216HW,2014-04-19 09:55:00,
2014-04-19 03:00:00,38.9,15.9,30.22,NNE,23,0.9,2.0,39,0.00,,,0.00,WUHU216HW,2014-04-19 10:00:00,
2014-04-19 03:05:00,38.5,14.3,30.21,NNE,23,1.1,2.0,37,0.00,,,0.00,WUHU216HW,2014-04-19 10:05:00,
2014-04-19 03:10:00,38.3,13.5,30.21,North,0,1.3,1.6,36,0.00,,,0.00,WUHU216HW,2014-04-19 10:10:00,
2014-04-19 03:15:00,38.3,13.5,30.21,North,0,1.8,1.8,36,0.00,,,0.00,WUHU216HW,2014-04-19 10:15:00,
2014-04-19 03:20:00,38.2,13.3,30.21,NNE,23,1.8,2.2,36,0.00,,,0.00,WUHU216HW,2014-04-19 10:20:00,
2014-04-19 03:25:00,38.0,11.9,30.21,North,0,1.1,2.2,34,0.00,,,0.00,WUHU216HW,2014-04-19 10:25:00,
2014-04-19 03:30:00,37.8,12.4,30.21,North,0,1.3,1.8,35,0.00,,,0.00,WUHU216HW,2014-04-19 10:30:00,
2014-04-19 03:35:00,37.8,9.8,30.21,NNE,23,2.2,2.2,31,0.00,,,0.00,WUHU216HW,2014-04-19 10:35:00,
2014-04-19 03:40:00,37.6,9.0,30.21,North,0,1.8,2.2,30,0.00,,,0.00,WUHU216HW,2014-04-19 10:40:00,
2014-04-19 03:45:00,37.4,8.8,30.21,North,0,1.8,2.2,30,0.00,,,0.00,WUHU216HW,2014-04-19 10:45:00,
2014-04-19 03:50:00,37.3,8.6,30.21,North,0,1.8,2.2,30,0.00,,,0.00,WUHU216HW,2014-04-19 10:50:00,
2014-04-19 03:55:00,37.3,9.3,30.21,NNE,23,1.8,1.8,31,0.00,,,0.00,WUHU216HW,2014-04-19 10:55:00,
2014-04-19 04:00:00,37.3,8.6,30.21,North,0,1.3,2.0,30,0.00,,,0.00,WUHU216HW,2014-04-19 11:00:00,
2014-04-19 04:05:00,37.1,8.5,30.21,North,0,1.3,2.0,30,0.00,,,0.00,WUHU216HW,2014-04-19 11:05:00,
2014-04-19 04:10:00,37.1,8.5,30.21,NNE,23,1.3,1.8,30,0.00,,,0.00,WUHU216HW,2014-04-19 11:10:00,
2014-04-19 04:15:00,37.1,5.9,30.21,North,0,0.9,1.8,27,0.00,,,0.00,WUHU216HW,2014-04-19 11:15:00,
2014-04-19 04:20:00,37.3,8.6,30.21,NNW,338,0.0,1.8,30,0.00,,,0.00,WUHU216HW,2014-04-19 11:20:00,
2014-04-19 04:25:00,37.4,9.5,30.21,East,90,0.4,0.9,31,0.00,,,0.00,WUHU216HW,2014-04-19 11:25:00,
2014-04-19 04:30:00,37.1,8.5,30.21,South,180,0.0,1.8,30,0.00,,,0.00,WUHU216HW,2014-04-19 11:30:00,
2014-04-19 04:35:00,36.7,8.8,30.21,SE,135,0.0,1.8,31,0.00,,,0.00,WUHU216HW,2014-04-19 11:35:00,
2014-04-19 04:40:00,36.5,8.6,30.20,NE,45,0.0,0.9,31,0.00,,,0.00,WUHU216HW,2014-04-19 11:40:00,
2014-04-19 04:45:00,36.5,8.0,30.20,NNE,23,0.0,0.4,30,0.00,,,0.00,WUHU216HW,2014-04-19 11:45:00,
2014-04-19 04:50:00,36.4,8.5,30.20,NE,45,0.0,0.4,31,0.00,,,0.00,WUHU216HW,2014-04-19 11:50:00,
2014-04-19 04:55:00,36.4,8.5,30.20,NE,45,0.7,1.1,31,0.00,,,0.00,WUHU216HW,2014-04-19 11:55:00,
2014-04-19 05:00:00,36.2,8.4,30.20,NE,45,0.0,1.1,31,0.00,,,0.00,WUHU216HW,2014-04-19 12:00:00,
2014-04-19 05:05:00,36.2,7.7,30.20,NNE,23,1.1,1.3,30,0.00,,,0.00,WUHU216HW,2014-04-19 12:05:00,
2014-04-19 05:10:00,36.2,6.9,30.20,North,0,0.4,1.3,29,0.00,,,0.00,WUHU216HW,2014-04-19 12:10:00,
2014-04-19 05:15:00,36.2,7.7,30.20,North,0,1.1,1.1,30,0.00,,,0.00,WUHU216HW,2014-04-19 12:15:00,
2014-04-19 05:20:00,36.4,7.8,30.19,North,0,1.6,1.8,30,0.00,,,0.00,WUHU216HW,2014-04-19 12:20:00,
2014-04-19 05:25:00,36.4,7.8,30.19,NNE,23,2.0,2.0,30,0.00,,,0.00,WUHU216HW,2014-04-19 12:25:00,
2014-04-19 05:30:00,36.4,7.8,30.19,North,0,1.8,2.0,30,0.00,,,0.00,WUHU216HW,2014-04-19 12:30:00,
2014-04-19 05:35:00,36.2,7.7,30.19,NE,45,2.2,2.2,30,0.00,,,0.00,WUHU216HW,2014-04-19 12:35:00,
2014-04-19 05:40:00,36.2,7.7,30.19,NNE,23,1.6,2.2,30,0.00,,,0.00,WUHU216HW,2014-04-19 12:40:00,
2014-04-19 05:45:00,36.0,7.6,30.19,North,0,0.7,2.2,30,0.00,,,0.00,WUHU216HW,2014-04-19 12:45:00,
2014-04-19 05:50:00,36.2,7.7,30.19,NNE,23,1.6,2.0,30,0.00,,,0.00,WUHU216HW,2014-04-19 12:50:00,
2014-04-19 05:55:00,36.0,7.6,30.19,NNE,23,1.1,1.6,30,0.00,,,0.00,WUHU216HW,2014-04-19 12:55:00,
2014-04-19 06:00:00,36.0,7.6,30.19,NNE,23,2.2,2.2,30,0.00,,,0.00,WUHU216HW,2014-04-19 13:00:00,
2014-04-19 06:05:00,35.8,2.2,30.19,North,0,2.2,2.5,24,0.00,,,0.00,WUHU216HW,2014-04-19 13:05:00,
2014-04-19 06:10:00,35.8,0.5,30.19,North,0,2.7,2.7,22,0.00,,,0.00,WUHU216HW,2014-04-19 13:10:00,
2014-04-19 06:15:00,36.0,0.5,30.19,SE,135,0.2,2.7,22,0.00,,,0.00,WUHU216HW,2014-04-19 13:15:00,
2014-04-19 06:20:00,36.2,1.6,30.18,East,90,0.0,2.5,23,0.00,,,0.00,WUHU216HW,2014-04-19 13:20:00,
2014-04-19 06:25:00,36.2,-0.2,30.18,SE,135,0.4,2.0,21,0.00,,,0.00,WUHU216HW,2014-04-19 13:25:00,
2014-04-19 06:30:00,36.4,-0.9,30.18,ESE,113,0.9,2.0,20,0.00,,,0.00,WUHU216HW,2014-04-19 13:30:00,
2014-04-19 06:35:00,36.4,-0.9,30.18,ESE,113,0.4,1.8,20,0.00,,,0.00,WUHU216HW,2014-04-19 13:35:00,
2014-04-19 06:40:00,36.4,-0.9,30.18,ENE,68,0.7,2.5,20,0.00,,,0.00,WUHU216HW,2014-04-19 13:40:00,
2014-04-19 06:45:00,36.7,-3.4,30.18,North,0,0.7,2.5,18,0.00,,,0.00,WUHU216HW,2014-04-19 13:45:00,
2014-04-19 06:50:00,37.1,-5.9,30.18,North,0,1.1,1.3,16,0.00,,,0.00,WUHU216HW,2014-04-19 13:50:00,
2014-04-19 06:55:00,37.4,-7.1,30.19,NNW,338,0.0,1.3,15,0.00,,,0.00,WUHU216HW,2014-04-19 13:55:00,
2014-04-19 07:00:00,38.0,-6.6,30.19,North,0,1.8,1.8,15,0.00,,,0.00,WUHU216HW,2014-04-19 14:00:00,
2014-04-19 07:05:00,38.5,-6.2,30.18,NNE,23,0.7,1.8,15,0.00,,,0.00,WUHU216HW,2014-04-19 14:05:00,
2014-04-19 07:10:00,38.9,-5.9,30.18,North,0,0.7,1.8,15,0.00,,,0.00,WUHU216HW,2014-04-19 14:10:00,
2014-04-19 07:15:00,39.4,-5.5,30.18,North,0,0.4,1.1,15,0.00,,,0.00,WUHU216HW,2014-04-19 14:15:00,
2014-04-19 07:20:00,39.6,-2.5,30.18,North,0,1.1,1.1,17,0.00,,,0.00,WUHU216HW,2014-04-19 14:20:00,
2014-04-19 07:25:00,40.0,-2.1,30.18,NNE,23,0.4,1.3,17,0.00,,,0.00,WUHU216HW,2014-04-19 14:25:00,
2014-04-19 07:30:00,40.1,-0.6,30.18,North,0,0.0,1.3,18,0.00,,,0.00,WUHU216HW,2014-04-19 14:30:00,
2014-04-19 07:35:00,40.5,-0.3,30.17,NNW,338,0.7,0.7,18,0.00,,,0.00,WUHU216HW,2014-04-19 14:35:00,
2014-04-19 07:40:00,41.0,1.6,30.17,SW,225,1.1,1.1,19,0.00,,,0.00,WUHU216HW,2014-04-19 14:40:00,
2014-04-19 07:45:00,42.3,4.1,30.17,West,270,0.0,1.1,20,0.00,,,0.00,WUHU216HW,2014-04-19 14:45:00,
2014-04-19 07:50:00,43.6,11.4,30.17,ENE,68,0.4,2.2,27,0.00,,,0.00,WUHU216HW,2014-04-19 14:50:00,
2014-04-19 07:55:00,44.5,16.3,30.17,SSE,158,0.9,2.2,32,0.00,,,0.00,WUHU216HW,2014-04-19 14:55:00,
2014-04-19 08:00:00,44.6,18.5,30.17,SE,135,2.2,2.5,35,0.00,,,0.00,WUHU216HW,2014-04-19 15:00:00,
2014-04-19 08:05:00,45.0,20.8,30.17,SE,135,2.5,2.7,38,0.00,,,0.00,WUHU216HW,2014-04-19 15:05:00,
2014-04-19 08:10:00,45.2,20.3,30.17,NNE,23,0.2,2.7,37,0.00,,,0.00,WUHU216HW,2014-04-19 15:10:00,
2014-04-19 08:15:00,45.5,22.6,30.18,ESE,113,4.3,4.3,40,0.00,,,0.00,WUHU216HW,2014-04-19 15:15:00,
2014-04-19 08:20:00,45.7,23.9,30.17,ESE,113,3.4,4.3,42,0.00,,,0.00,WUHU216HW,2014-04-19 15:20:00,
2014-04-19 08:25:00,45.7,24.9,30.16,ESE,113,4.5,4.5,44,0.00,,,0.00,WUHU216HW,2014-04-19 15:25:00,
2014-04-19 08:30:00,45.7,25.5,30.17,SE,135,2.0,5.1,45,0.00,,,0.00,WUHU216HW,2014-04-19 15:30:00,
2014-04-19 08:35:00,46.1,25.2,30.17,ESE,113,2.0,5.1,44,0.00,,,0.00,WUHU216HW,2014-04-19 15:35:00,
2014-04-19 08:40:00,46.6,25.8,30.17,ESE,113,3.6,4.7,44,0.00,,,0.00,WUHU216HW,2014-04-19 15:40:00,
2014-04-19 08:45:00,47.0,27.1,30.17,ESE,113,3.8,4.7,46,0.00,,,0.00,WUHU216HW,2014-04-19 15:45:00,
2014-04-19 08:50:00,47.3,27.5,30.17,SSE,158,3.8,4.7,46,0.00,,,0.00,WUHU216HW,2014-04-19 15:50:00,
2014-04-19 08:55:00,47.7,27.8,30.17,East,90,1.6,4.7,46,0.00,,,0.00,WUHU216HW,2014-04-19 15:55:00,
2014-04-19 09:00:00,47.9,28.4,30.17,SSE,158,2.2,4.3,47,0.00,,,0.00,WUHU216HW,2014-04-19 16:00:00,
2014-04-19 09:05:00,48.2,29.3,30.17,SSE,158,2.2,4.3,48,0.00,,,0.00,WUHU216HW,2014-04-19 16:05:00,
2014-04-19 09:10:00,48.2,29.3,30.17,SE,135,1.8,4.3,48,0.00,,,0.00,WUHU216HW,2014-04-19 16:10:00,
2014-04-19 09:15:00,48.2,29.3,30.17,SE,135,1.8,2.2,48,0.00,,,0.00,WUHU216HW,2014-04-19 16:15:00,
2014-04-19 09:37:00,51.3,32.8,30.16,ESE,113,2.0,2.0,49,0.00,,,0.00,WUHU216HW,2014-04-19 16:37:00,
2014-04-19 09:42:00,51.5,32.9,30.16,SW,225,2.5,4.0,49,0.00,,,0.00,WUHU216HW,2014-04-19 16:42:00,
2014-04-19 09:47:00,51.5,33.5,30.16,SSE,158,0.9,4.0,50,0.00,,,0.00,WUHU216HW,2014-04-19 16:47:00,
2014-04-19 09:52:00,51.7,33.7,30.16,SE,135,3.4,6.3,50,0.00,,,0.00,WUHU216HW,2014-04-19 16:52:00,
2014-04-19 09:57:00,52.2,33.6,30.16,ENE,68,4.0,6.3,49,0.00,,,0.00,WUHU216HW,2014-04-19 16:57:00,
2014-04-19 10:02:00,53.3,34.6,30.16,SW,225,4.7,4.7,49,0.00,,,0.00,WUHU216HW,2014-04-19 17:02:00,
2014-04-19 10:07:00,53.3,34.6,30.16,NE,45,0.7,5.6,49,0.00,,,0.00,WUHU216HW,2014-04-19 17:07:00,
2014-04-19 10:12:00,53.6,34.9,30.16,NE,45,2.9,5.6,49,0.00,,,0.00,WUHU216HW,2014-04-19 17:12:00,
2014-04-19 10:17:00,54.4,35.0,30.16,ESE,113,1.8,4.7,48,0.00,,,0.00,WUHU216HW,2014-04-19 17:17:00,
2014-04-19 10:22:00,54.7,35.9,30.15,SSE,158,4.3,4.7,49,0.00,,,0.00,WUHU216HW,2014-04-19 17:22:00,
2014-04-19 10:27:00,55.3,35.8,30.16,SSE,158,4.7,5.1,48,0.00,,,0.00,WUHU216HW,2014-04-19 17:27:00,
2014-04-19 10:32:00,55.8,35.7,30.16,SSW,203,1.6,6.7,47,0.00,,,0.00,WUHU216HW,2014-04-19 17:32:00,
2014-04-19 10:37:00,56.3,36.3,30.16,East,90,1.1,6.7,47,0.00,,,0.00,WUHU216HW,2014-04-19 17:37:00,
2014-04-19 10:42:00,56.9,36.8,30.16,ENE,68,2.2,3.8,47,0.00,,,0.00,WUHU216HW,2014-04-19 17:42:00,
2014-04-19 10:47:00,57.1,36.4,30.16,NE,45,2.0,6.3,46,0.00,,,0.00,WUHU216HW,2014-04-19 17:47:00,
2014-04-19 10:52:00,57.2,36.0,30.16,South,180,4.3,6.3,45,0.00,,,0.00,WUHU216HW,2014-04-19 17:52:00,
2014-04-19 10:57:00,57.1,35.8,30.15,SE,135,1.1,5.4,45,0.00,,,0.00,WUHU216HW,2014-04-19 17:57:00,
2014-04-19 11:02:00,57.2,36.0,30.15,SE,135,2.9,4.3,45,0.00,,,0.00,WUHU216HW,2014-04-19 18:02:00,
2014-04-19 11:07:00,58.0,36.6,30.15,ENE,68,2.2,4.3,45,0.00,,,0.00,WUHU216HW,2014-04-19 18:07:00,
2014-04-19 11:12:00,59.2,37.8,30.15,East,90,2.0,5.4,45,0.00,,,0.00,WUHU216HW,2014-04-19 18:12:00,
2014-04-19 11:17:00,59.8,37.1,30.15,SE,135,2.5,5.4,43,0.00,,,0.00,WUHU216HW,2014-04-19 18:17:00,
2014-04-19 11:22:00,59.8,37.1,30.15,SSE,158,0.9,4.3,43,0.00,,,0.00,WUHU216HW,2014-04-19 18:22:00,
2014-04-19 11:27:00,59.6,36.4,30.15,SSE,158,2.2,5.8,42,0.00,,,0.00,WUHU216HW,2014-04-19 18:27:00,
2014-04-19 11:32:00,58.9,35.7,30.15,North,0,0.0,5.8,42,0.00,,,0.00,WUHU216HW,2014-04-19 18:32:00,
2014-04-19 11:37:00,58.9,36.3,30.15,NE,45,1.6,2.9,43,0.00,,,0.00,WUHU216HW,2014-04-19 18:37:00,
2014-04-19 11:42:00,59.0,35.9,30.15,ESE,113,2.7,3.4,42,0.00,,,0.00,WUHU216HW,2014-04-19 18:42:00,
2014-04-19 11:47:00,59.4,36.8,30.15,SE,135,1.1,3.4,43,0.00,,,0.00,WUHU216HW,2014-04-19 18:47:00,
2014-04-19 11:52:00,59.6,36.4,30.15,ENE,68,1.1,3.4,42,0.00,,,0.00,WUHU216HW,2014-04-19 18:52:00,
2014-04-19 11:57:00,59.6,37.0,30.15,NNE,23,0.9,2.2,43,0.00,,,0.00,WUHU216HW,2014-04-19 18:57:00,
2014-04-19 12:02:00,60.7,37.9,30.14,NW,315,1.1,1.8,43,0.00,,,0.00,WUHU216HW,2014-04-19 19:02:00,
2014-04-19 12:07:00,61.4,38.0,30.14,NNW,338,1.1,2.9,42,0.00,,,0.00,WUHU216HW,2014-04-19 19:07:00,
2014-04-19 12:12:00,61.2,36.7,30.14,SW,225,1.3,2.9,40,0.00,,,0.00,WUHU216HW,2014-04-19 19:12:00,
2014-04-19 12:17:00,61.0,37.1,30.14,NE,45,0.4,2.5,41,0.00,,,0.00,WUHU216HW,2014-04-19 19:17:00,
2014-04-19 12:22:00,61.2,36.7,30.14,SSW,203,0.7,1.8,40,0.00,,,0.00,WUHU216HW,2014-04-19 19:22:00,
2014-04-19 12:27:00,61.0,35.1,30.14,SSW,203,1.8,3.1,38,0.00,,,0.00,WUHU216HW,2014-04-19 19:27:00,
2014-04-19 12:32:00,60.8,36.4,30.13,SSW,203,0.9,5.4,40,0.00,,,0.00,WUHU216HW,2014-04-19 19:32:00,
2014-04-19 12:37:00,60.8,36.4,30.13,SE,135,2.0,5.4,40,0.00,,,0.00,WUHU216HW,2014-04-19 19:37:00,
2014-04-19 12:42:00,60.7,36.2,30.13,SE,135,3.4,4.7,40,0.00,,,0.00,WUHU216HW,2014-04-19 19:42:00,
2014-04-19 12:47:00,60.5,36.0,30.13,SE,135,3.1,5.4,40,0.00,,,0.00,WUHU216HW,2014-04-19 19:47:00,
2014-04-19 12:52:00,60.3,35.9,30.12,WSW,248,2.9,5.4,40,0.00,,,0.00,WUHU216HW,2014-04-19 19:52:00,
2014-04-19 12:57:00,60.1,36.3,30.12,SW,225,2.9,5.8,41,0.00,,,0.00,WUHU216HW,2014-04-19 19:57:00,
2014-04-19 13:02:00,60.1,35.0,30.12,SSE,158,1.6,5.8,39,0.00,,,0.00,WUHU216HW,2014-04-19 20:02:00,
2014-04-19 13:07:00,60.3,35.2,30.12,West,270,3.4,4.7,39,0.00,,,0.00,WUHU216HW,2014-04-19 20:07:00,
2014-04-19 13:12:00,60.3,35.9,30.12,SSW,203,2.7,5.1,40,0.00,,,0.00,WUHU216HW,2014-04-19 20:12:00,
2014-04-19 13:17:00,60.7,36.2,30.12,SSW,203,4.5,5.1,40,0.00,,,0.00,WUHU216HW,2014-04-19 20:17:00,
2014-04-19 13:22:00,61.2,36.0,30.12,WSW,248,1.8,5.4,39,0.00,,,0.00,WUHU216HW,2014-04-19 20:22:00,
2014-04-19 13:27:00,62.1,35.4,30.12,NW,315,3.8,5.4,37,0.00,,,0.00,WUHU216HW,2014-04-19 20:27:00,
2014-04-19 13:32:00,62.6,36.5,30.12,North,0,2.0,5.1,38,0.00,,,0.00,WUHU216HW,2014-04-19 20:32:00,
2014-04-19 13:37:00,63.2,37.0,30.12,North,0,1.8,3.6,38,0.00,,,0.00,WUHU216HW,2014-04-19 20:37:00,
2014-04-19 13:42:00,63.5,36.6,30.12,SW,225,1.6,4.0,37,0.00,,,0.00,WUHU216HW,2014-04-19 20:42:00,
2014-04-19 13:47:00,63.7,36.8,30.12,NW,315,2.5,4.0,37,0.00,,,0.00,WUHU216HW,2014-04-19 20:47:00,
2014-04-19 13:52:00,63.7,36.1,30.12,WNW,293,3.1,5.4,36,0.00,,,0.00,WUHU216HW,2014-04-19 20:52:00,
2014-04-19 13:57:00,63.7,36.8,30.12,SSW,203,3.8,5.4,37,0.00,,,0.00,WUHU216HW,2014-04-19 20:57:00,
2014-04-19 14:02:00,63.9,37.0,30.12,WSW,248,3.1,8.3,37,0.00,,,0.00,WUHU216HW,2014-04-19 21:02:00,
2014-04-19 14:07:00,63.9,37.0,30.12,WSW,248,3.8,8.3,37,0.00,,,0.00,WUHU216HW,2014-04-19 21:07:00,
2014-04-19 14:12:00,64.1,37.1,30.12,SSW,203,3.8,5.6,37,0.00,,,0.00,WUHU216HW,2014-04-19 21:12:00,
2014-04-19 14:17:00,64.6,36.9,30.12,SSW,203,0.7,5.1,36,0.00,,,0.00,WUHU216HW,2014-04-19 21:17:00,
2014-04-19 14:22:00,65.3,38.3,30.12,SW,225,1.3,4.9,37,0.00,,,0.00,WUHU216HW,2014-04-19 21:22:00,
2014-04-19 14:27:00,65.7,36.5,30.12,WNW,293,9.2,9.2,34,0.00,,,0.00,WUHU216HW,2014-04-19 21:27:00,
2014-04-19 14:32:00,67.1,36.9,30.12,ENE,68,4.3,11.0,33,0.00,,,0.00,WUHU216HW,2014-04-19 21:32:00,
2014-04-19 14:37:00,67.7,38.9,30.12,ENE,68,6.3,11.0,35,0.00,,,0.00,WUHU216HW,2014-04-19 21:37:00,
2014-04-19 14:42:00,68.0,38.4,30.12,North,0,6.5,9.6,34,0.00,,,0.00,WUHU216HW,2014-04-19 21:42:00,
2014-04-19 14:47:00,68.6,38.9,30.12,NNW,338,7.4,11.6,34,0.00,,,0.00,WUHU216HW,2014-04-19 21:47:00,
2014-04-19 14:52:00,69.3,39.5,30.12,NNE,23,7.6,11.6,34,0.00,,,0.00,WUHU216HW,2014-04-19 21:52:00,
2014-04-19 14:57:00,70.0,39.4,30.13,NE,45,10.1,12.8,33,0.00,,,0.00,WUHU216HW,2014-04-19 21:57:00,
2014-04-19 15:02:00,70.4,39.8,30.13,NNE,23,8.9,14.3,33,0.00,,,0.00,WUHU216HW,2014-04-19 22:02:00,
2014-04-19 15:07:00,70.4,39.8,30.14,NE,45,4.0,14.3,33,0.00,,,0.00,WUHU216HW,2014-04-19 22:07:00,
2014-04-19 15:12:00,70.0,39.4,30.15,NNE,23,6.3,15.7,33,0.00,,,0.00,WUHU216HW,2014-04-19 22:12:00,
2014-04-19 15:17:00,69.3,38.8,30.16,NNW,338,9.4,18.8,33,0.00,,,0.00,WUHU216HW,2014-04-19 22:17:00,
2014-04-19 15:22:00,68.8,39.8,30.16,NNE,23,4.7,18.8,35,0.00,,,0.00,WUHU216HW,2014-04-19 22:22:00,
2014-04-19 15:27:00,68.4,39.5,30.16,ESE,113,7.2,10.3,35,0.00,,,0.00,WUHU216HW,2014-04-19 22:27:00,
2014-04-19 15:32:00,68.0,39.2,30.16,NNE,23,3.4,12.8,35,0.00,,,0.00,WUHU216HW,2014-04-19 22:32:00,